createdAt,value
2018-08-22T00:00:24.252Z,74.10
2018-08-22T00:02:52.515Z,73.70
2018-08-22T00:05:20.824Z,73.80
2018-08-22T00:07:49.022Z,73.50
2018-08-22T00:10:17.336Z,74.10
2018-08-22T00:12:45.626Z,74.20
2018-08-22T00:15:13.945Z,75.60
2018-08-22T00:17:42.124Z,74.10
2018-08-22T00:20:10.443Z,73.90
2018-08-22T00:22:38.628Z,73.80
2018-08-22T00:25:06.859Z,73.40
2018-08-22T00:27:35.070Z,73.40
2018-08-22T00:30:03.442Z,73.40
2018-08-22T00:32:31.635Z,73.20
2018-08-22T00:34:59.824Z,73.20
2018-08-22T00:37:28.017Z,73.00
2018-08-22T00:39:56.203Z,73.10
2018-08-22T00:42:24.437Z,73.10
2018-08-22T00:44:52.612Z,73.30
2018-08-22T00:47:20.808Z,73.40
2018-08-22T00:49:49.115Z,73.80
2018-08-22T00:52:17.374Z,74.20
2018-08-22T00:54:45.935Z,73.40
2018-08-22T00:57:14.162Z,74.10
2018-08-22T00:59:42.357Z,74.60
2018-08-22T01:02:10.584Z,74.10
2018-08-22T01:04:38.872Z,73.90
2018-08-22T01:07:07.250Z,74.20
2018-08-22T01:09:35.483Z,74.40
2018-08-22T01:12:03.713Z,74.30
2018-08-22T01:14:31.910Z,74.40
2018-08-22T01:17:00.110Z,75.30
2018-08-22T01:19:28.303Z,76.80
2018-08-22T01:21:56.558Z,77.30
2018-08-22T01:24:24.776Z,76.80
2018-08-22T01:26:53.012Z,77.30
2018-08-22T01:29:21.237Z,77.00
2018-08-22T01:31:49.479Z,75.70
2018-08-22T01:34:17.677Z,76.30
2018-08-22T01:36:45.908Z,77.50
2018-08-22T01:39:14.134Z,78.10
2018-08-22T01:41:42.327Z,78.10
2018-08-22T01:44:10.691Z,79.00
2018-08-22T01:46:38.940Z,78.70
2018-08-22T01:49:07.173Z,78.70
2018-08-22T01:51:35.365Z,78.70
2018-08-22T01:54:03.606Z,77.90
2018-08-22T01:56:31.982Z,78.70
2018-08-22T01:59:00.176Z,77.90
2018-08-22T02:01:28.430Z,78.50
2018-08-22T02:03:56.676Z,78.10
2018-08-22T02:06:24.975Z,79.20
2018-08-22T02:08:53.228Z,78.20
2018-08-22T02:11:21.430Z,77.60
2018-08-22T02:13:49.670Z,76.90
2018-08-22T02:16:18.006Z,76.80
2018-08-22T02:18:46.234Z,76.90
2018-08-22T02:21:14.448Z,76.70
2018-08-22T02:23:42.675Z,76.50
2018-08-22T02:26:10.897Z,77.80
2018-08-22T02:28:39.149Z,76.90
2018-08-22T02:31:07.448Z,77.10
2018-08-22T02:33:35.660Z,78.80
2018-08-22T02:36:03.871Z,79.50
2018-08-22T02:38:32.180Z,79.00
2018-08-22T02:41:00.388Z,79.40
2018-08-22T02:43:28.578Z,80.70
2018-08-22T02:45:56.819Z,79.90
2018-08-22T02:48:25.044Z,80.40
2018-08-22T02:50:53.212Z,80.80
2018-08-22T02:53:21.452Z,80.40
2018-08-22T02:55:49.985Z,80.40
2018-08-22T02:58:18.160Z,80.70
2018-08-22T03:00:46.436Z,81.30
2018-08-22T03:03:14.660Z,80.90
2018-08-22T03:05:42.870Z,80.80
2018-08-22T03:08:11.070Z,81.00
2018-08-22T03:10:39.322Z,81.30
2018-08-22T03:13:07.524Z,81.00
2018-08-22T03:15:35.789Z,80.90
2018-08-22T03:18:03.996Z,81.30
2018-08-22T03:20:32.179Z,81.30
2018-08-22T03:23:00.436Z,81.20
2018-08-22T03:25:28.695Z,81.20
2018-08-22T03:27:56.915Z,81.40
2018-08-22T03:30:25.156Z,82.30
2018-08-22T03:32:53.408Z,81.90
2018-08-22T03:35:21.686Z,81.90
2018-08-22T03:37:50.088Z,82.60
2018-08-22T03:40:18.960Z,83.00
2018-08-22T03:42:47.180Z,83.80
2018-08-22T03:45:15.418Z,83.50
2018-08-22T03:47:43.612Z,84.20
2018-08-22T03:50:11.808Z,84.50
2018-08-22T03:52:40.833Z,84.60
2018-08-22T03:55:09.037Z,85.30
2018-08-22T03:57:37.454Z,85.50
2018-08-22T04:00:05.733Z,85.40
2018-08-22T04:02:34.072Z,85.70
2018-08-22T04:05:02.356Z,86.30
2018-08-22T04:07:30.640Z,86.50
2018-08-22T04:09:58.897Z,86.70
2018-08-22T04:12:27.917Z,86.70
2018-08-22T04:14:56.235Z,86.80
2018-08-22T04:17:40.648Z,86.70
2018-08-22T04:20:09.372Z,86.70
2018-08-22T04:22:40.272Z,87.00
2018-08-22T04:25:09.093Z,87.10
2018-08-22T04:27:37.319Z,87.10
2018-08-22T04:30:05.672Z,87.40
2018-08-22T04:32:33.938Z,87.60
2018-08-22T04:35:02.168Z,87.30
2018-08-22T04:37:30.438Z,87.40
2018-08-22T04:39:58.727Z,87.90
2018-08-22T04:42:26.909Z,87.40
2018-08-22T04:44:55.155Z,88.00
2018-08-22T04:47:23.390Z,88.00
2018-08-22T04:49:51.608Z,87.70
2018-08-22T04:52:19.808Z,87.70
2018-08-22T04:54:48.059Z,88.10
2018-08-22T04:57:16.243Z,87.70
2018-08-22T04:59:44.524Z,87.40
2018-08-22T05:02:12.809Z,87.10
2018-08-22T05:04:41.092Z,86.90
2018-08-22T05:07:09.315Z,87.10
2018-08-22T05:09:37.525Z,87.00
2018-08-22T05:12:05.732Z,86.50
2018-08-22T05:14:34.015Z,86.80
2018-08-22T05:17:02.268Z,86.80
2018-08-22T05:19:30.496Z,87.30
2018-08-22T05:21:58.715Z,87.10
2018-08-22T05:24:27.591Z,87.00
2018-08-22T05:26:55.780Z,86.80
2018-08-22T05:29:24.160Z,86.50
2018-08-22T05:31:52.418Z,87.40
2018-08-22T05:34:20.600Z,86.00
2018-08-22T05:36:48.986Z,86.70
2018-08-22T05:39:17.248Z,86.00
2018-08-22T05:41:45.447Z,85.20
2018-08-22T05:44:13.631Z,84.90
2018-08-22T05:46:41.852Z,83.00
2018-08-22T05:49:10.123Z,82.50
2018-08-22T05:51:38.335Z,82.40
2018-08-22T05:54:06.717Z,82.10
2018-08-22T05:56:34.887Z,82.00
2018-08-22T05:59:03.084Z,81.30
2018-08-22T06:01:31.469Z,81.50
2018-08-22T06:03:59.736Z,80.90
2018-08-22T06:06:28.037Z,80.60
2018-08-22T06:08:56.243Z,80.00
2018-08-22T06:11:24.516Z,79.90
2018-08-22T06:13:52.733Z,80.00
2018-08-22T06:16:20.921Z,80.00
2018-08-22T06:18:49.229Z,80.10
2018-08-22T06:21:17.450Z,80.10
2018-08-22T06:23:45.617Z,80.30
2018-08-22T06:26:13.820Z,80.50
2018-08-22T06:28:42.071Z,80.60
2018-08-22T06:31:10.257Z,80.60
2018-08-22T06:33:38.508Z,80.20
2018-08-22T06:36:06.748Z,79.40
2018-08-22T06:38:34.948Z,78.90
2018-08-22T06:41:03.151Z,78.20
2018-08-22T06:43:31.360Z,77.70
2018-08-22T06:46:00.539Z,76.70
2018-08-22T06:48:28.784Z,75.80
2018-08-22T06:50:56.976Z,75.40
2018-08-22T06:53:25.328Z,75.20
2018-08-22T06:55:53.547Z,74.70
2018-08-22T06:58:21.789Z,74.40
2018-08-22T07:00:50.090Z,74.70
2018-08-22T07:03:18.400Z,73.30
2018-08-22T07:05:46.659Z,72.70
2018-08-22T07:08:15.013Z,72.60
2018-08-22T07:10:43.190Z,72.20
2018-08-22T07:13:11.452Z,71.80
2018-08-22T07:15:39.700Z,71.30
2018-08-22T07:18:07.900Z,70.50
2018-08-22T07:20:36.096Z,71.40
2018-08-22T07:23:04.304Z,70.60
2018-08-22T07:25:32.566Z,70.60
2018-08-22T07:28:00.976Z,70.50
2018-08-22T07:30:29.205Z,70.60
2018-08-22T07:32:57.460Z,71.30
2018-08-22T07:35:25.669Z,70.10
2018-08-22T07:37:53.933Z,69.20
2018-08-22T07:40:22.128Z,68.50
2018-08-22T07:42:50.557Z,68.40
2018-08-22T07:45:18.866Z,67.50
2018-08-22T07:47:47.056Z,67.30
2018-08-22T07:50:15.380Z,65.90
2018-08-22T07:52:49.105Z,65.20
2018-08-22T07:55:17.308Z,64.40
2018-08-22T07:57:45.653Z,63.10
2018-08-22T08:00:13.912Z,63.10
2018-08-22T08:02:42.112Z,61.60
2018-08-22T08:05:10.408Z,60.20
2018-08-22T08:07:38.660Z,59.50
2018-08-22T08:10:06.905Z,59.40
2018-08-22T08:12:39.896Z,59.10
2018-08-22T08:15:08.642Z,59.70
2018-08-22T08:17:36.831Z,59.40
2018-08-22T08:20:05.428Z,58.20
2018-08-22T08:22:33.673Z,57.60
2018-08-22T08:25:01.881Z,57.80
2018-08-22T08:27:30.174Z,56.70
2018-08-22T08:29:58.359Z,56.40
2018-08-22T08:32:26.628Z,56.10
2018-08-22T08:34:54.905Z,55.50
2018-08-22T08:37:23.127Z,55.20
2018-08-22T08:39:51.404Z,55.10
2018-08-22T08:42:19.605Z,55.10
2018-08-22T08:44:47.843Z,54.70
2018-08-22T08:47:16.085Z,53.30
2018-08-22T08:49:44.357Z,52.70
2018-08-22T08:52:12.589Z,52.40
2018-08-22T08:54:40.859Z,52.90
2018-08-22T08:57:09.085Z,53.40
2018-08-22T08:59:37.235Z,52.50
2018-08-22T09:02:05.468Z,52.40
2018-08-22T09:04:33.668Z,52.60
2018-08-22T09:07:02.190Z,52.50
2018-08-22T09:09:30.383Z,52.00
2018-08-22T09:11:59.688Z,51.70
2018-08-22T09:14:28.205Z,51.40
2018-08-22T09:16:57.044Z,51.30
2018-08-22T09:19:25.438Z,52.10
2018-08-22T09:21:53.657Z,52.30
2018-08-22T09:24:21.883Z,50.90
2018-08-22T09:26:50.108Z,50.60
2018-08-22T09:29:18.304Z,50.90
2018-08-22T09:31:46.524Z,50.70
2018-08-22T09:34:14.773Z,50.00
2018-08-22T09:36:43.066Z,49.80
2018-08-22T09:39:12.561Z,49.20
2018-08-22T09:41:41.102Z,49.20
2018-08-22T09:44:09.378Z,50.10
2018-08-22T09:46:38.672Z,49.10
2018-08-22T09:49:06.863Z,49.30
2018-08-22T09:51:35.074Z,48.40
2018-08-22T09:54:03.503Z,48.70
2018-08-22T09:56:31.723Z,49.20
2018-08-22T09:59:00.085Z,48.80
2018-08-22T10:01:33.604Z,48.30
2018-08-22T10:04:02.356Z,48.40
2018-08-22T10:06:33.969Z,47.90
2018-08-22T10:09:03.331Z,47.40
2018-08-22T10:11:31.593Z,47.30
2018-08-22T10:13:59.817Z,47.50
2018-08-22T10:16:28.903Z,46.80
2018-08-22T10:18:57.280Z,47.70
2018-08-22T10:21:26.175Z,46.70
2018-08-22T10:23:54.432Z,45.00
2018-08-22T10:26:22.788Z,46.50
2018-08-22T10:28:51.140Z,45.60
2018-08-22T10:31:19.353Z,45.30
2018-08-22T10:33:47.630Z,45.30
2018-08-22T10:36:15.824Z,44.80
2018-08-22T10:38:44.092Z,45.30
2018-08-22T10:41:12.300Z,45.00
2018-08-22T10:43:40.505Z,44.80
2018-08-22T10:46:09.485Z,44.80
2018-08-22T10:48:37.699Z,44.60
2018-08-22T10:51:06.416Z,44.10
2018-08-22T10:53:34.660Z,45.30
2018-08-22T10:56:02.852Z,45.80
2018-08-22T10:58:31.198Z,44.30
2018-08-22T11:01:00.020Z,45.40
2018-08-22T11:03:28.316Z,43.90
2018-08-22T11:05:56.539Z,44.40
2018-08-22T11:08:25.049Z,44.00
2018-08-22T11:10:53.310Z,44.40
2018-08-22T11:13:21.574Z,44.70
2018-08-22T11:15:49.919Z,44.40
2018-08-22T11:18:18.056Z,44.40
2018-08-22T11:20:52.305Z,44.50
2018-08-22T11:23:32.342Z,44.60
2018-08-22T11:26:12.318Z,44.60
2018-08-22T11:28:51.940Z,43.90
2018-08-22T11:31:31.549Z,43.70
2018-08-22T11:34:10.967Z,42.90
2018-08-22T11:36:38.151Z,43.00
2018-08-22T11:39:07.271Z,43.40
2018-08-22T11:41:35.472Z,43.30
2018-08-22T11:44:03.696Z,43.10
2018-08-22T11:46:31.969Z,43.10
2018-08-22T11:49:00.172Z,42.90
2018-08-22T11:51:28.405Z,43.00
2018-08-22T11:53:56.614Z,42.00
2018-08-22T11:56:24.891Z,43.20
2018-08-22T11:58:53.168Z,43.00
2018-08-22T12:01:21.387Z,43.10
2018-08-22T12:03:49.867Z,43.20
2018-08-22T12:06:18.096Z,42.40
2018-08-22T12:08:46.304Z,42.80
2018-08-22T12:11:14.545Z,42.10
2018-08-22T12:13:42.736Z,42.40
2018-08-22T12:16:11.020Z,43.10
2018-08-22T12:18:39.168Z,42.50
2018-08-22T12:21:07.448Z,42.50
2018-08-22T12:23:35.712Z,42.50
2018-08-22T12:26:04.001Z,41.80
2018-08-22T12:28:32.268Z,41.50
2018-08-22T12:31:00.490Z,41.70
2018-08-22T12:33:28.636Z,41.40
2018-08-22T12:35:56.922Z,41.00
2018-08-22T12:38:25.302Z,40.90
2018-08-22T12:40:53.552Z,41.50
2018-08-22T12:43:21.775Z,41.70
2018-08-22T12:45:50.072Z,41.80
2018-08-22T12:48:18.296Z,41.40
2018-08-22T12:50:46.584Z,41.20
2018-08-22T12:53:14.832Z,41.60
2018-08-22T12:55:43.089Z,41.40
2018-08-22T12:58:11.373Z,40.70
2018-08-22T13:00:39.664Z,40.90
2018-08-22T13:03:07.891Z,41.60
2018-08-22T13:05:36.235Z,41.70
2018-08-22T13:08:04.503Z,41.50
2018-08-22T13:10:32.704Z,41.50
2018-08-22T13:13:00.956Z,41.70
2018-08-22T13:15:29.224Z,40.90
2018-08-22T13:17:57.606Z,40.90
2018-08-22T13:20:25.884Z,40.80
2018-08-22T13:22:54.159Z,40.60
2018-08-22T13:25:22.424Z,41.00
2018-08-22T13:27:50.736Z,40.50
2018-08-22T13:30:19.025Z,39.60
2018-08-22T13:32:47.407Z,40.20
2018-08-22T13:35:15.540Z,39.90
2018-08-22T13:37:43.730Z,39.90
2018-08-22T13:40:12.111Z,39.10
2018-08-22T13:42:40.476Z,40.20
2018-08-22T13:45:08.820Z,39.40
2018-08-22T13:47:37.029Z,38.90
2018-08-22T13:50:05.336Z,39.40
2018-08-22T13:52:33.893Z,38.90
2018-08-22T13:55:02.072Z,39.10
2018-08-22T13:57:30.351Z,39.50
2018-08-22T13:59:58.600Z,39.30
2018-08-22T14:02:26.849Z,38.70
2018-08-22T14:04:55.070Z,38.80
2018-08-22T14:07:23.256Z,38.90
2018-08-22T14:09:51.527Z,38.90
2018-08-22T14:12:19.784Z,38.90
2018-08-22T14:14:47.977Z,38.60
2018-08-22T14:17:16.165Z,38.90
2018-08-22T14:19:44.453Z,39.10
2018-08-22T14:22:12.624Z,38.90
2018-08-22T14:24:40.859Z,39.40
2018-08-22T14:27:09.060Z,39.30
2018-08-22T14:29:37.264Z,38.10
2018-08-22T14:32:05.960Z,38.50
2018-08-22T14:34:34.183Z,38.90
2018-08-22T14:37:02.485Z,38.30
2018-08-22T14:39:30.677Z,38.60
2018-08-22T14:41:58.924Z,37.60
2018-08-22T14:44:27.220Z,38.60
2018-08-22T14:46:55.458Z,38.60
2018-08-22T14:49:23.653Z,38.80
2018-08-22T14:51:51.855Z,38.90
2018-08-22T14:54:20.105Z,38.40
2018-08-22T14:56:48.332Z,37.90
2018-08-22T14:59:16.532Z,37.70
2018-08-22T15:01:44.798Z,37.90
2018-08-22T15:04:13.112Z,38.20
2018-08-22T15:06:41.307Z,38.60
2018-08-22T15:09:17.395Z,38.60
2018-08-22T15:11:45.625Z,38.50
2018-08-22T15:14:13.800Z,38.40
2018-08-22T15:16:42.109Z,38.10
2018-08-22T15:19:10.386Z,38.10
2018-08-22T15:21:38.660Z,38.40
2018-08-22T15:24:06.904Z,38.20
2018-08-22T15:26:35.140Z,38.10
2018-08-22T15:29:03.332Z,38.20
2018-08-22T15:31:31.531Z,38.00
2018-08-22T15:33:59.824Z,38.20
2018-08-22T15:36:28.089Z,38.60
2018-08-22T15:38:56.242Z,38.80
2018-08-22T15:41:24.491Z,38.80
2018-08-22T15:43:52.716Z,38.80
2018-08-22T15:46:20.985Z,38.80
2018-08-22T15:48:49.280Z,39.20
2018-08-22T15:51:17.516Z,38.00
2018-08-22T15:53:56.016Z,38.00
2018-08-22T15:56:24.236Z,38.80
2018-08-22T15:58:52.553Z,38.90
2018-08-22T16:01:20.789Z,39.10
2018-08-22T16:03:49.050Z,39.70
2018-08-22T16:06:17.251Z,40.10
2018-08-22T16:08:45.445Z,40.20
2018-08-22T16:11:13.771Z,39.90
2018-08-22T16:13:42.065Z,39.90
2018-08-22T16:16:10.305Z,40.00
2018-08-22T16:18:38.500Z,40.30
2018-08-22T16:21:07.024Z,40.50
2018-08-22T16:23:35.709Z,40.80
2018-08-22T16:26:04.892Z,40.40
2018-08-22T16:28:45.508Z,40.40
2018-08-22T16:31:13.861Z,40.70
2018-08-22T16:33:41.897Z,40.60
2018-08-22T16:36:14.332Z,40.20
2018-08-22T16:38:42.556Z,41.00
2018-08-22T16:41:11.040Z,41.30
2018-08-22T16:43:41.443Z,41.30
2018-08-22T16:46:12.424Z,42.10
2018-08-22T16:48:41.547Z,42.40
2018-08-22T16:51:09.872Z,42.10
2018-08-22T16:53:38.170Z,42.20
2018-08-22T16:56:06.556Z,42.40
2018-08-22T16:58:34.970Z,43.50
2018-08-22T17:01:03.135Z,43.00
2018-08-22T17:03:31.325Z,42.90
2018-08-22T17:06:04.821Z,42.50
2018-08-22T17:08:33.061Z,42.90
2018-08-22T17:11:05.237Z,43.40
2018-08-22T17:13:51.520Z,43.80
2018-08-22T17:16:20.149Z,44.70
2018-08-22T17:18:48.476Z,44.20
2018-08-22T17:21:19.107Z,44.30
2018-08-22T17:23:47.814Z,44.50
2018-08-22T17:26:19.992Z,44.60
2018-08-22T17:28:52.714Z,44.90
2018-08-22T17:31:22.028Z,45.30
2018-08-22T17:33:56.832Z,45.60
2018-08-22T17:36:25.156Z,45.70
2018-08-22T17:38:54.700Z,45.90
2018-08-22T17:41:24.315Z,46.30
2018-08-22T17:44:00.687Z,47.00
2018-08-22T17:46:31.320Z,47.40
2018-08-22T17:48:59.563Z,47.60
2018-08-22T17:51:27.883Z,47.80
2018-08-22T17:53:56.157Z,48.10
2018-08-22T17:56:25.541Z,48.40
2018-08-22T17:58:54.732Z,48.60
2018-08-22T18:01:23.387Z,48.90
2018-08-22T18:03:53.849Z,49.30
2018-08-22T18:06:22.096Z,49.60
2018-08-22T18:08:50.364Z,50.20
2018-08-22T18:11:18.577Z,50.20
2018-08-22T18:13:46.826Z,50.60
2018-08-22T18:16:15.025Z,50.80
2018-08-22T18:18:43.225Z,51.10
2018-08-22T18:21:11.464Z,51.10
2018-08-22T18:23:55.920Z,51.60
2018-08-22T18:26:24.147Z,51.90
2018-08-22T18:28:52.395Z,52.10
2018-08-22T18:31:20.640Z,52.30
2018-08-22T18:33:57.657Z,52.40
2018-08-22T18:36:26.916Z,52.80
2018-08-22T18:39:04.432Z,53.20
2018-08-22T18:41:32.764Z,53.50
2018-08-22T18:44:01.321Z,54.20
2018-08-22T18:46:29.518Z,54.50
2018-08-22T18:48:57.752Z,54.60
2018-08-22T18:51:26.024Z,55.00
2018-08-22T18:53:54.323Z,55.30
2018-08-22T18:56:22.727Z,55.60
2018-08-22T18:58:51.415Z,56.10
2018-08-22T19:01:19.773Z,56.50
2018-08-22T19:03:47.968Z,56.90
2018-08-22T19:06:16.175Z,56.90
2018-08-22T19:08:44.420Z,57.10
2018-08-22T19:11:12.725Z,57.60
2018-08-22T19:13:40.880Z,57.80
2018-08-22T19:16:10.346Z,57.90
2018-08-22T19:18:38.949Z,58.20
2018-08-22T19:21:08.586Z,58.60
2018-08-22T19:23:36.850Z,58.70
2018-08-22T19:26:06.012Z,59.10
2018-08-22T19:28:49.483Z,59.20
2018-08-22T19:31:17.714Z,59.50
2018-08-22T19:33:45.948Z,59.60
2018-08-22T19:36:14.152Z,60.00
2018-08-22T19:38:42.842Z,60.30
2018-08-22T19:41:22.388Z,60.70
2018-08-22T19:43:50.647Z,61.10
2018-08-22T19:46:19.703Z,61.50
2018-08-22T19:48:47.934Z,62.70
2018-08-22T19:51:16.176Z,63.10
2018-08-22T19:53:56.438Z,63.10
2018-08-22T19:56:25.158Z,63.90
2018-08-22T19:58:53.259Z,64.40
2018-08-22T20:01:21.541Z,64.60
2018-08-22T20:03:52.721Z,65.50
2018-08-22T20:06:21.419Z,65.60
2018-08-22T20:08:52.709Z,66.20
2018-08-22T20:11:21.100Z,68.00
2018-08-22T20:13:52.745Z,67.60
2018-08-22T20:16:21.972Z,68.10
2018-08-22T20:18:55.849Z,68.70
2018-08-22T20:21:31.941Z,69.00
2018-08-22T20:24:00.936Z,69.00
2018-08-22T20:26:29.561Z,69.50
2018-08-22T20:28:59.036Z,69.50
2018-08-22T20:31:27.303Z,69.70
2018-08-22T20:34:08.632Z,70.20
2018-08-22T20:36:36.838Z,70.30
2018-08-22T20:39:08.697Z,70.80
2018-08-22T20:41:37.373Z,71.20
2018-08-22T20:44:07.669Z,71.40
2018-08-22T20:46:35.888Z,72.30
2018-08-22T20:49:04.131Z,72.20
2018-08-22T20:51:32.825Z,72.20
2018-08-22T20:54:07.032Z,72.30
2018-08-22T20:56:35.813Z,72.90
2018-08-22T20:59:04.017Z,73.20
2018-08-22T21:01:32.275Z,73.30
2018-08-22T21:04:01.570Z,73.90
2018-08-22T21:06:29.847Z,74.00
2018-08-22T21:08:59.115Z,74.50
2018-08-22T21:11:27.332Z,74.80
2018-08-22T21:13:55.618Z,75.30
2018-08-22T21:16:23.849Z,77.00
2018-08-22T21:18:52.225Z,76.50
2018-08-22T21:21:23.400Z,76.80
2018-08-22T21:23:51.660Z,76.70
2018-08-22T21:26:34.198Z,77.00
2018-08-22T21:29:02.448Z,77.40
2018-08-22T21:31:30.726Z,77.20
2018-08-22T21:34:01.935Z,77.50
2018-08-22T21:36:30.154Z,78.40
2018-08-22T21:38:58.371Z,78.60
2018-08-22T21:41:26.639Z,78.70
2018-08-22T21:43:54.903Z,78.40
2018-08-22T21:46:23.139Z,78.80
2018-08-22T21:48:51.365Z,78.90
2018-08-22T21:51:19.636Z,79.10
2018-08-22T21:53:47.901Z,79.20
2018-08-22T21:56:16.576Z,79.50
2018-08-22T21:58:44.780Z,79.60
2018-08-22T22:01:13.032Z,79.80
2018-08-22T22:03:41.447Z,79.70
2018-08-22T22:06:09.691Z,79.70
2018-08-22T22:08:43.242Z,80.00
2018-08-22T22:11:11.466Z,80.30
2018-08-22T22:13:39.659Z,80.70
2018-08-22T22:16:08.018Z,81.40
2018-08-22T22:18:36.288Z,80.90
2018-08-22T22:21:12.375Z,81.60
2018-08-22T22:23:45.568Z,81.90
2018-08-22T22:26:14.749Z,82.20
2018-08-22T22:28:43.012Z,82.60
2018-08-22T22:31:13.277Z,82.60
2018-08-22T22:34:03.292Z,82.50
2018-08-22T22:36:32.835Z,82.60
2018-08-22T22:39:01.039Z,83.10
2018-08-22T22:41:30.594Z,83.70
2018-08-22T22:43:58.845Z,83.80
2018-08-22T22:46:27.052Z,84.20
2018-08-22T22:48:55.269Z,84.00
2018-08-22T22:51:23.523Z,84.40
2018-08-22T22:53:51.780Z,84.30
2018-08-22T22:56:20.012Z,85.10
2018-08-22T22:58:48.254Z,85.30
2018-08-22T23:01:16.515Z,85.40
2018-08-22T23:03:44.804Z,85.00
2018-08-22T23:06:13.190Z,85.60
2018-08-22T23:08:41.419Z,85.40
2018-08-22T23:11:09.817Z,86.00
2018-08-22T23:13:38.020Z,85.70
2018-08-22T23:16:06.277Z,85.50
2018-08-22T23:18:34.542Z,85.70
2018-08-22T23:21:02.743Z,85.80
2018-08-22T23:23:37.202Z,85.60
2018-08-22T23:26:18.580Z,85.50
2018-08-22T23:28:46.810Z,85.40
2018-08-22T23:31:16.567Z,84.30
2018-08-22T23:33:44.799Z,85.50
2018-08-22T23:36:13.040Z,86.60
2018-08-22T23:38:41.252Z,85.80
2018-08-22T23:41:09.465Z,86.20
2018-08-22T23:43:43.921Z,86.30
2018-08-22T23:46:13.088Z,86.50
2018-08-22T23:48:41.567Z,86.80
2018-08-22T23:51:11.088Z,87.20
2018-08-22T23:53:44.746Z,87.40
2018-08-22T23:56:21.840Z,87.70
2018-08-22T23:58:50.656Z,87.80
